sensor_id;sensor_type;location;lat;lon;timestamp;temperature;humidity
29575;DHT22;16507;51.046;6.406;2023-11-21T00:02:20;8.10;99.90
29575;DHT22;16507;51.046;6.406;2023-11-21T00:04:46;8.10;99.90
29575;DHT22;16507;51.046;6.406;2023-11-21T00:07:12;8.10;99.90
29575;DHT22;16507;51.046;6.406;2023-11-21T00:09:38;8.00;99.90
29575;DHT22;16507;51.046;6.406;2023-11-21T00:12:04;8.00;99.90
29575;DHT22;16507;51.046;6.406;2023-11-21T00:14:30;7.90;99.90
29575;DHT22;16507;51.046;6.406;2023-11-21T00:16:55;8.00;99.90
29575;DHT22;16507;51.046;6.406;2023-11-21T00:19:21;7.90;99.90
29575;DHT22;16507;51.046;6.406;2023-11-21T00:21:49;8.00;99.90
29575;DHT22;16507;51.046;6.406;2023-11-21T00:24:15;8.00;99.90
29575;DHT22;16507;51.046;6.406;2023-11-21T00:26:41;8.00;99.90
29575;DHT22;16507;51.046;6.406;2023-11-21T00:29:07;8.00;99.90
29575;DHT22;16507;51.046;6.406;2023-11-21T00:31:34;8.00;99.90
29575;DHT22;16507;51.046;6.406;2023-11-21T00:34:05;7.90;99.90
29575;DHT22;16507;51.046;6.406;2023-11-21T00:36:31;8.00;99.90
29575;DHT22;16507;51.046;6.406;2023-11-21T00:38:58;7.90;99.90
29575;DHT22;16507;51.046;6.406;2023-11-21T00:41:23;7.90;99.90
29575;DHT22;16507;51.046;6.406;2023-11-21T00:43:49;7.90;99.90
29575;DHT22;16507;51.046;6.406;2023-11-21T00:46:14;7.80;99.90
29575;DHT22;16507;51.046;6.406;2023-11-21T00:48:40;7.80;99.90
29575;DHT22;16507;51.046;6.406;2023-11-21T00:51:06;7.70;99.90
29575;DHT22;16507;51.046;6.406;2023-11-21T00:53:32;7.70;99.90
29575;DHT22;16507;51.046;6.406;2023-11-21T00:55:57;7.70;99.90
29575;DHT22;16507;51.046;6.406;2023-11-21T00:58:26;7.80;99.90
29575;DHT22;16507;51.046;6.406;2023-11-21T01:00:52;7.70;99.90
29575;DHT22;16507;51.046;6.406;2023-11-21T01:03:18;7.80;99.90
29575;DHT22;16507;51.046;6.406;2023-11-21T01:05:44;7.90;99.90
29575;DHT22;16507;51.046;6.406;2023-11-21T01:08:11;7.90;99.90
29575;DHT22;16507;51.046;6.406;2023-11-21T01:10:36;8.00;99.90
29575;DHT22;16507;51.046;6.406;2023-11-21T01:13:03;7.90;99.90
29575;DHT22;16507;51.046;6.406;2023-11-21T01:15:33;7.90;99.90
29575;DHT22;16507;51.046;6.406;2023-11-21T01:17:58;7.90;99.90
29575;DHT22;16507;51.046;6.406;2023-11-21T01:20:30;7.90;99.90
29575;DHT22;16507;51.046;6.406;2023-11-21T01:22:55;7.90;99.90
29575;DHT22;16507;51.046;6.406;2023-11-21T01:25:21;7.90;99.90
29575;DHT22;16507;51.046;6.406;2023-11-21T01:27:47;7.90;99.90
29575;DHT22;16507;51.046;6.406;2023-11-21T01:30:13;7.80;99.90
29575;DHT22;16507;51.046;6.406;2023-11-21T01:32:38;7.90;99.90
29575;DHT22;16507;51.046;6.406;2023-11-21T01:35:05;7.80;99.90
29575;DHT22;16507;51.046;6.406;2023-11-21T01:37:32;7.90;99.90
29575;DHT22;16507;51.046;6.406;2023-11-21T01:39:59;8.00;99.90
29575;DHT22;16507;51.046;6.406;2023-11-21T01:42:24;7.90;99.90
29575;DHT22;16507;51.046;6.406;2023-11-21T01:44:50;8.00;99.90
29575;DHT22;16507;51.046;6.406;2023-11-21T01:47:16;7.90;99.90
29575;DHT22;16507;51.046;6.406;2023-11-21T01:49:45;7.90;99.90
29575;DHT22;16507;51.046;6.406;2023-11-21T01:52:12;8.10;99.90
29575;DHT22;16507;51.046;6.406;2023-11-21T01:54:38;8.00;99.90
29575;DHT22;16507;51.046;6.406;2023-11-21T01:57:05;8.10;99.90
29575;DHT22;16507;51.046;6.406;2023-11-21T01:59:38;8.10;99.90
29575;DHT22;16507;51.046;6.406;2023-11-21T02:02:07;8.00;99.90
29575;DHT22;16507;51.046;6.406;2023-11-21T02:04:35;8.10;99.90
29575;DHT22;16507;51.046;6.406;2023-11-21T02:07:04;8.10;99.90
29575;DHT22;16507;51.046;6.406;2023-11-21T02:09:32;8.10;99.90
29575;DHT22;16507;51.046;6.406;2023-11-21T02:11:59;8.10;99.90
29575;DHT22;16507;51.046;6.406;2023-11-21T02:14:26;8.10;99.90
29575;DHT22;16507;51.046;6.406;2023-11-21T02:16:53;8.10;99.90
29575;DHT22;16507;51.046;6.406;2023-11-21T02:19:21;8.20;99.90
29575;DHT22;16507;51.046;6.406;2023-11-21T02:21:50;8.30;99.90
29575;DHT22;16507;51.046;6.406;2023-11-21T02:24:21;8.20;99.90
29575;DHT22;16507;51.046;6.406;2023-11-21T02:26:49;8.20;99.90
29575;DHT22;16507;51.046;6.406;2023-11-21T02:29:17;8.30;99.90
29575;DHT22;16507;51.046;6.406;2023-11-21T02:31:44;8.30;99.90
29575;DHT22;16507;51.046;6.406;2023-11-21T02:34:16;8.40;99.90
29575;DHT22;16507;51.046;6.406;2023-11-21T02:36:43;8.40;99.90
29575;DHT22;16507;51.046;6.406;2023-11-21T02:39:09;8.30;99.90
29575;DHT22;16507;51.046;6.406;2023-11-21T02:41:39;8.40;99.90
29575;DHT22;16507;51.046;6.406;2023-11-21T02:44:05;8.30;99.90
29575;DHT22;16507;51.046;6.406;2023-11-21T02:46:33;8.40;99.90
29575;DHT22;16507;51.046;6.406;2023-11-21T02:49:03;8.40;99.90
29575;DHT22;16507;51.046;6.406;2023-11-21T02:51:30;8.30;99.90
29575;DHT22;16507;51.046;6.406;2023-11-21T02:53:56;8.40;99.90
29575;DHT22;16507;51.046;6.406;2023-11-21T02:56:25;8.30;99.90
29575;DHT22;16507;51.046;6.406;2023-11-21T02:58:57;8.30;99.90
29575;DHT22;16507;51.046;6.406;2023-11-21T03:01:23;8.30;99.90
29575;DHT22;16507;51.046;6.406;2023-11-21T03:03:53;8.30;99.90
29575;DHT22;16507;51.046;6.406;2023-11-21T03:06:19;8.40;99.90
29575;DHT22;16507;51.046;6.406;2023-11-21T03:08:45;8.30;99.90
29575;DHT22;16507;51.046;6.406;2023-11-21T03:11:12;8.50;99.90
29575;DHT22;16507;51.046;6.406;2023-11-21T03:13:42;8.30;99.90
29575;DHT22;16507;51.046;6.406;2023-11-21T03:16:09;8.30;99.90
29575;DHT22;16507;51.046;6.406;2023-11-21T03:18:35;8.50;99.90
29575;DHT22;16507;51.046;6.406;2023-11-21T03:21:01;8.30;99.90
29575;DHT22;16507;51.046;6.406;2023-11-21T03:23:28;8.40;99.90
29575;DHT22;16507;51.046;6.406;2023-11-21T03:25:53;8.40;99.90
29575;DHT22;16507;51.046;6.406;2023-11-21T03:28:19;8.50;99.90
29575;DHT22;16507;51.046;6.406;2023-11-21T03:30:44;8.50;99.90
29575;DHT22;16507;51.046;6.406;2023-11-21T03:33:10;8.40;99.90
29575;DHT22;16507;51.046;6.406;2023-11-21T03:35:35;8.50;99.90
29575;DHT22;16507;51.046;6.406;2023-11-21T03:38:01;8.40;99.90
29575;DHT22;16507;51.046;6.406;2023-11-21T03:40:27;8.40;99.90
29575;DHT22;16507;51.046;6.406;2023-11-21T03:42:53;8.50;99.90
29575;DHT22;16507;51.046;6.406;2023-11-21T03:45:18;8.50;99.90
29575;DHT22;16507;51.046;6.406;2023-11-21T03:47:44;8.50;99.90
29575;DHT22;16507;51.046;6.406;2023-11-21T03:50:10;8.50;99.90
29575;DHT22;16507;51.046;6.406;2023-11-21T03:52:35;8.40;99.90
29575;DHT22;16507;51.046;6.406;2023-11-21T03:55:01;8.40;99.90
29575;DHT22;16507;51.046;6.406;2023-11-21T03:57:27;8.50;99.90
29575;DHT22;16507;51.046;6.406;2023-11-21T03:59:53;8.40;99.90
29575;DHT22;16507;51.046;6.406;2023-11-21T04:02:19;8.40;99.90
29575;DHT22;16507;51.046;6.406;2023-11-21T04:04:45;8.50;99.90
29575;DHT22;16507;51.046;6.406;2023-11-21T04:07:11;8.50;99.90
29575;DHT22;16507;51.046;6.406;2023-11-21T04:09:39;8.60;99.90
29575;DHT22;16507;51.046;6.406;2023-11-21T04:12:05;8.40;99.90
29575;DHT22;16507;51.046;6.406;2023-11-21T04:14:30;8.50;99.90
29575;DHT22;16507;51.046;6.406;2023-11-21T04:16:57;8.50;99.90
29575;DHT22;16507;51.046;6.406;2023-11-21T04:19:22;8.40;99.90
29575;DHT22;16507;51.046;6.406;2023-11-21T04:21:48;8.40;99.90
29575;DHT22;16507;51.046;6.406;2023-11-21T04:24:14;8.50;99.90
29575;DHT22;16507;51.046;6.406;2023-11-21T04:26:39;8.40;99.90
29575;DHT22;16507;51.046;6.406;2023-11-21T04:29:05;8.50;99.90
29575;DHT22;16507;51.046;6.406;2023-11-21T04:31:30;8.40;99.90
29575;DHT22;16507;51.046;6.406;2023-11-21T04:33:57;8.50;99.90
29575;DHT22;16507;51.046;6.406;2023-11-21T04:36:22;8.30;99.90
29575;DHT22;16507;51.046;6.406;2023-11-21T04:38:48;8.50;99.90
29575;DHT22;16507;51.046;6.406;2023-11-21T04:41:14;8.50;99.90
29575;DHT22;16507;51.046;6.406;2023-11-21T04:43:39;8.50;99.90
29575;DHT22;16507;51.046;6.406;2023-11-21T04:46:05;8.40;99.90
29575;DHT22;16507;51.046;6.406;2023-11-21T04:48:32;8.30;99.90
29575;DHT22;16507;51.046;6.406;2023-11-21T04:50:58;8.50;99.90
29575;DHT22;16507;51.046;6.406;2023-11-21T04:53:23;8.50;99.90
29575;DHT22;16507;51.046;6.406;2023-11-21T04:55:49;8.40;99.90
29575;DHT22;16507;51.046;6.406;2023-11-21T04:58:15;8.50;99.90
29575;DHT22;16507;51.046;6.406;2023-11-21T05:00:40;8.40;99.90
29575;DHT22;16507;51.046;6.406;2023-11-21T05:03:07;8.40;99.90
29575;DHT22;16507;51.046;6.406;2023-11-21T05:05:33;8.50;99.90
29575;DHT22;16507;51.046;6.406;2023-11-21T05:08:01;8.40;99.90
29575;DHT22;16507;51.046;6.406;2023-11-21T05:10:27;8.40;99.90
29575;DHT22;16507;51.046;6.406;2023-11-21T05:12:54;8.50;99.90
29575;DHT22;16507;51.046;6.406;2023-11-21T05:15:20;8.50;99.90
29575;DHT22;16507;51.046;6.406;2023-11-21T05:17:46;8.50;99.90
29575;DHT22;16507;51.046;6.406;2023-11-21T05:20:15;8.50;99.90
29575;DHT22;16507;51.046;6.406;2023-11-21T05:22:45;8.40;99.90
29575;DHT22;16507;51.046;6.406;2023-11-21T05:25:11;8.40;99.90
29575;DHT22;16507;51.046;6.406;2023-11-21T05:27:37;8.50;99.90
29575;DHT22;16507;51.046;6.406;2023-11-21T05:30:04;8.40;99.90
29575;DHT22;16507;51.046;6.406;2023-11-21T05:32:37;8.50;99.90
29575;DHT22;16507;51.046;6.406;2023-11-21T05:35:03;8.40;99.90
29575;DHT22;16507;51.046;6.406;2023-11-21T05:37:35;8.40;99.90
29575;DHT22;16507;51.046;6.406;2023-11-21T05:40:01;8.50;99.90
29575;DHT22;16507;51.046;6.406;2023-11-21T05:42:31;8.40;99.90
29575;DHT22;16507;51.046;6.406;2023-11-21T05:44:57;8.50;99.90
29575;DHT22;16507;51.046;6.406;2023-11-21T05:47:24;8.60;99.90
29575;DHT22;16507;51.046;6.406;2023-11-21T05:49:51;8.60;99.90
29575;DHT22;16507;51.046;6.406;2023-11-21T05:52:18;8.60;99.90
29575;DHT22;16507;51.046;6.406;2023-11-21T05:54:43;8.50;99.90
29575;DHT22;16507;51.046;6.406;2023-11-21T05:57:09;8.70;99.90
29575;DHT22;16507;51.046;6.406;2023-11-21T05:59:35;8.70;99.90
29575;DHT22;16507;51.046;6.406;2023-11-21T06:02:00;8.70;99.90
29575;DHT22;16507;51.046;6.406;2023-11-21T06:04:27;8.60;99.90
29575;DHT22;16507;51.046;6.406;2023-11-21T06:06:53;8.70;99.90
29575;DHT22;16507;51.046;6.406;2023-11-21T06:09:19;8.80;99.90
29575;DHT22;16507;51.046;6.406;2023-11-21T06:11:45;8.60;99.90
29575;DHT22;16507;51.046;6.406;2023-11-21T06:14:10;8.70;99.90
29575;DHT22;16507;51.046;6.406;2023-11-21T06:16:36;8.80;99.90
29575;DHT22;16507;51.046;6.406;2023-11-21T06:19:02;8.80;99.90
29575;DHT22;16507;51.046;6.406;2023-11-21T06:21:27;8.90;99.90
29575;DHT22;16507;51.046;6.406;2023-11-21T06:23:53;8.80;99.90
29575;DHT22;16507;51.046;6.406;2023-11-21T06:26:18;8.90;99.90
29575;DHT22;16507;51.046;6.406;2023-11-21T06:28:45;8.90;99.90
29575;DHT22;16507;51.046;6.406;2023-11-21T06:31:11;8.90;99.90
29575;DHT22;16507;51.046;6.406;2023-11-21T06:33:37;9.00;99.90
29575;DHT22;16507;51.046;6.406;2023-11-21T06:36:03;8.90;99.90
29575;DHT22;16507;51.046;6.406;2023-11-21T06:38:32;8.90;99.90
29575;DHT22;16507;51.046;6.406;2023-11-21T06:40:58;9.00;99.90
29575;DHT22;16507;51.046;6.406;2023-11-21T06:43:24;9.00;99.90
29575;DHT22;16507;51.046;6.406;2023-11-21T06:45:50;9.00;99.90
29575;DHT22;16507;51.046;6.406;2023-11-21T06:48:16;8.90;99.90
29575;DHT22;16507;51.046;6.406;2023-11-21T06:50:41;8.90;99.90
29575;DHT22;16507;51.046;6.406;2023-11-21T06:53:07;8.80;99.90
29575;DHT22;16507;51.046;6.406;2023-11-21T06:55:33;8.90;99.90
29575;DHT22;16507;51.046;6.406;2023-11-21T06:58:00;8.90;99.90
29575;DHT22;16507;51.046;6.406;2023-11-21T07:00:25;8.90;99.90
29575;DHT22;16507;51.046;6.406;2023-11-21T07:02:54;8.90;99.90
29575;DHT22;16507;51.046;6.406;2023-11-21T07:05:21;8.80;99.90
29575;DHT22;16507;51.046;6.406;2023-11-21T07:07:47;8.90;99.90
29575;DHT22;16507;51.046;6.406;2023-11-21T07:10:13;8.90;99.90
29575;DHT22;16507;51.046;6.406;2023-11-21T07:12:39;9.00;99.90
29575;DHT22;16507;51.046;6.406;2023-11-21T07:15:06;8.90;99.90
29575;DHT22;16507;51.046;6.406;2023-11-21T07:17:35;9.00;99.90
29575;DHT22;16507;51.046;6.406;2023-11-21T07:20:01;9.00;99.90
29575;DHT22;16507;51.046;6.406;2023-11-21T07:22:28;8.90;99.90
29575;DHT22;16507;51.046;6.406;2023-11-21T07:24:53;8.90;99.90
29575;DHT22;16507;51.046;6.406;2023-11-21T07:27:19;9.10;99.90
29575;DHT22;16507;51.046;6.406;2023-11-21T07:29:46;8.90;99.90
29575;DHT22;16507;51.046;6.406;2023-11-21T07:32:13;9.10;99.90
29575;DHT22;16507;51.046;6.406;2023-11-21T07:34:40;9.10;99.90
29575;DHT22;16507;51.046;6.406;2023-11-21T07:37:07;9.10;99.90
29575;DHT22;16507;51.046;6.406;2023-11-21T07:39:34;9.00;99.90
29575;DHT22;16507;51.046;6.406;2023-11-21T07:42:00;9.10;99.90
29575;DHT22;16507;51.046;6.406;2023-11-21T07:44:28;9.00;99.90
29575;DHT22;16507;51.046;6.406;2023-11-21T07:46:54;9.10;99.90
29575;DHT22;16507;51.046;6.406;2023-11-21T07:49:23;9.00;99.90
29575;DHT22;16507;51.046;6.406;2023-11-21T07:51:49;9.00;99.90
29575;DHT22;16507;51.046;6.406;2023-11-21T07:54:15;9.10;99.90
29575;DHT22;16507;51.046;6.406;2023-11-21T07:56:41;9.10;99.90
29575;DHT22;16507;51.046;6.406;2023-11-21T07:59:07;9.20;99.90
29575;DHT22;16507;51.046;6.406;2023-11-21T08:01:32;9.20;99.90
29575;DHT22;16507;51.046;6.406;2023-11-21T08:03:58;9.10;99.90
29575;DHT22;16507;51.046;6.406;2023-11-21T08:06:27;9.10;99.90
29575;DHT22;16507;51.046;6.406;2023-11-21T08:08:53;9.10;99.90
29575;DHT22;16507;51.046;6.406;2023-11-21T08:11:19;9.20;99.90
29575;DHT22;16507;51.046;6.406;2023-11-21T08:13:45;9.30;99.90
29575;DHT22;16507;51.046;6.406;2023-11-21T08:16:11;9.40;99.90
29575;DHT22;16507;51.046;6.406;2023-11-21T08:18:37;9.30;99.90
29575;DHT22;16507;51.046;6.406;2023-11-21T08:21:06;9.40;99.90
29575;DHT22;16507;51.046;6.406;2023-11-21T08:23:31;9.40;99.90
29575;DHT22;16507;51.046;6.406;2023-11-21T08:25:57;9.50;99.90
29575;DHT22;16507;51.046;6.406;2023-11-21T08:28:22;9.50;99.90
29575;DHT22;16507;51.046;6.406;2023-11-21T08:30:51;9.60;99.90
29575;DHT22;16507;51.046;6.406;2023-11-21T08:33:17;9.50;99.90
29575;DHT22;16507;51.046;6.406;2023-11-21T08:35:43;9.40;99.90
29575;DHT22;16507;51.046;6.406;2023-11-21T08:38:09;9.50;99.90
29575;DHT22;16507;51.046;6.406;2023-11-21T08:40:35;9.40;99.90
29575;DHT22;16507;51.046;6.406;2023-11-21T08:43:01;9.40;99.90
29575;DHT22;16507;51.046;6.406;2023-11-21T08:45:30;9.30;99.90
29575;DHT22;16507;51.046;6.406;2023-11-21T08:47:55;9.40;99.90
29575;DHT22;16507;51.046;6.406;2023-11-21T08:50:21;9.50;99.90
29575;DHT22;16507;51.046;6.406;2023-11-21T08:52:47;9.50;99.90
29575;DHT22;16507;51.046;6.406;2023-11-21T08:55:13;9.50;99.90
29575;DHT22;16507;51.046;6.406;2023-11-21T08:57:39;9.50;99.90
29575;DHT22;16507;51.046;6.406;2023-11-21T09:00:07;9.40;99.90
29575;DHT22;16507;51.046;6.406;2023-11-21T09:02:34;9.50;99.90
29575;DHT22;16507;51.046;6.406;2023-11-21T09:05:00;9.60;99.90
29575;DHT22;16507;51.046;6.406;2023-11-21T09:07:29;9.70;99.90
29575;DHT22;16507;51.046;6.406;2023-11-21T09:09:54;9.60;99.90
29575;DHT22;16507;51.046;6.406;2023-11-21T09:12:20;9.80;99.90
29575;DHT22;16507;51.046;6.406;2023-11-21T09:14:47;9.80;99.90
29575;DHT22;16507;51.046;6.406;2023-11-21T09:17:12;9.90;99.90
29575;DHT22;16507;51.046;6.406;2023-11-21T09:19:40;9.80;99.90
29575;DHT22;16507;51.046;6.406;2023-11-21T09:22:06;9.70;99.90
29575;DHT22;16507;51.046;6.406;2023-11-21T09:24:34;9.70;99.90
29575;DHT22;16507;51.046;6.406;2023-11-21T09:27:00;9.80;99.90
29575;DHT22;16507;51.046;6.406;2023-11-21T09:29:27;9.90;99.90
29575;DHT22;16507;51.046;6.406;2023-11-21T09:31:53;9.90;99.90
29575;DHT22;16507;51.046;6.406;2023-11-21T09:34:20;9.90;99.90
29575;DHT22;16507;51.046;6.406;2023-11-21T09:36:46;10.10;99.90
29575;DHT22;16507;51.046;6.406;2023-11-21T09:39:11;10.10;99.90
29575;DHT22;16507;51.046;6.406;2023-11-21T09:41:49;10.10;99.90
29575;DHT22;16507;51.046;6.406;2023-11-21T09:44:18;10.00;99.90
29575;DHT22;16507;51.046;6.406;2023-11-21T09:46:47;10.00;99.90
29575;DHT22;16507;51.046;6.406;2023-11-21T09:49:18;10.00;99.90
29575;DHT22;16507;51.046;6.406;2023-11-21T09:51:47;10.00;99.90
29575;DHT22;16507;51.046;6.406;2023-11-21T09:54:14;10.10;99.90
29575;DHT22;16507;51.046;6.406;2023-11-21T09:56:41;10.10;99.90
29575;DHT22;16507;51.046;6.406;2023-11-21T09:59:11;10.20;99.90
29575;DHT22;16507;51.046;6.406;2023-11-21T10:01:38;10.20;99.90
29575;DHT22;16507;51.046;6.406;2023-11-21T10:04:05;10.20;99.90
29575;DHT22;16507;51.046;6.406;2023-11-21T10:06:40;10.30;99.90
29575;DHT22;16507;51.046;6.406;2023-11-21T10:09:09;10.40;99.90
29575;DHT22;16507;51.046;6.406;2023-11-21T10:11:43;10.40;99.90
29575;DHT22;16507;51.046;6.406;2023-11-21T10:14:11;10.40;99.90
29575;DHT22;16507;51.046;6.406;2023-11-21T10:16:39;10.20;99.90
29575;DHT22;16507;51.046;6.406;2023-11-21T10:19:09;10.30;99.90
29575;DHT22;16507;51.046;6.406;2023-11-21T10:21:35;10.30;99.90
29575;DHT22;16507;51.046;6.406;2023-11-21T10:24:01;10.30;99.90
29575;DHT22;16507;51.046;6.406;2023-11-21T10:26:28;10.30;99.90
29575;DHT22;16507;51.046;6.406;2023-11-21T10:29:01;10.20;99.90
29575;DHT22;16507;51.046;6.406;2023-11-21T10:31:32;10.10;99.90
29575;DHT22;16507;51.046;6.406;2023-11-21T10:34:18;10.30;99.90
29575;DHT22;16507;51.046;6.406;2023-11-21T10:36:45;10.30;99.90
29575;DHT22;16507;51.046;6.406;2023-11-21T10:39:18;10.30;99.90
29575;DHT22;16507;51.046;6.406;2023-11-21T10:41:45;10.30;99.90
29575;DHT22;16507;51.046;6.406;2023-11-21T10:44:14;10.40;99.90
29575;DHT22;16507;51.046;6.406;2023-11-21T10:46:46;10.40;99.90
29575;DHT22;16507;51.046;6.406;2023-11-21T10:49:26;10.50;99.90
29575;DHT22;16507;51.046;6.406;2023-11-21T10:51:56;10.60;99.90
29575;DHT22;16507;51.046;6.406;2023-11-21T10:54:25;10.60;99.90
29575;DHT22;16507;51.046;6.406;2023-11-21T10:56:57;10.60;99.90
29575;DHT22;16507;51.046;6.406;2023-11-21T10:59:28;10.70;99.90
29575;DHT22;16507;51.046;6.406;2023-11-21T11:01:54;10.70;99.90
29575;DHT22;16507;51.046;6.406;2023-11-21T11:04:22;10.70;99.90
29575;DHT22;16507;51.046;6.406;2023-11-21T11:07:02;10.70;99.90
29575;DHT22;16507;51.046;6.406;2023-11-21T11:09:30;10.70;99.90
29575;DHT22;16507;51.046;6.406;2023-11-21T11:11:59;10.70;99.90
29575;DHT22;16507;51.046;6.406;2023-11-21T11:14:25;10.90;99.90
29575;DHT22;16507;51.046;6.406;2023-11-21T11:16:54;10.90;99.90
29575;DHT22;16507;51.046;6.406;2023-11-21T11:19:21;11.00;99.90
29575;DHT22;16507;51.046;6.406;2023-11-21T11:22:48;11.10;99.90
29575;DHT22;16507;51.046;6.406;2023-11-21T11:25:05;11.20;99.90
29575;DHT22;16507;51.046;6.406;2023-11-21T11:27:52;11.10;99.90
29575;DHT22;16507;51.046;6.406;2023-11-21T11:30:45;10.90;99.90
29575;DHT22;16507;51.046;6.406;2023-11-21T11:33:36;10.90;99.90
29575;DHT22;16507;51.046;6.406;2023-11-21T11:36:28;10.90;99.90
29575;DHT22;16507;51.046;6.406;2023-11-21T11:38:55;10.90;99.90
29575;DHT22;16507;51.046;6.406;2023-11-21T11:41:31;10.90;99.90
29575;DHT22;16507;51.046;6.406;2023-11-21T11:44:03;10.90;99.90
29575;DHT22;16507;51.046;6.406;2023-11-21T11:46:43;11.00;99.90
29575;DHT22;16507;51.046;6.406;2023-11-21T11:49:10;10.90;99.90
29575;DHT22;16507;51.046;6.406;2023-11-21T11:51:37;11.00;99.90
29575;DHT22;16507;51.046;6.406;2023-11-21T11:54:02;11.00;99.90
29575;DHT22;16507;51.046;6.406;2023-11-21T11:56:31;11.10;99.90
29575;DHT22;16507;51.046;6.406;2023-11-21T11:59:02;11.30;99.90
29575;DHT22;16507;51.046;6.406;2023-11-21T12:01:35;11.60;99.90
29575;DHT22;16507;51.046;6.406;2023-11-21T12:06:51;13.70;99.90
29575;DHT22;16507;51.046;6.406;2023-11-21T12:09:24;13.60;99.90
29575;DHT22;16507;51.046;6.406;2023-11-21T12:11:50;12.90;99.90
29575;DHT22;16507;51.046;6.406;2023-11-21T12:14:16;12.70;99.90
29575;DHT22;16507;51.046;6.406;2023-11-21T12:16:42;12.20;99.90
29575;DHT22;16507;51.046;6.406;2023-11-21T12:19:14;12.00;99.90
29575;DHT22;16507;51.046;6.406;2023-11-21T12:21:40;12.00;99.90
29575;DHT22;16507;51.046;6.406;2023-11-21T12:24:09;11.90;99.90
29575;DHT22;16507;51.046;6.406;2023-11-21T12:26:35;11.70;99.90
29575;DHT22;16507;51.046;6.406;2023-11-21T12:29:04;11.50;99.90
29575;DHT22;16507;51.046;6.406;2023-11-21T12:31:33;11.40;99.90
29575;DHT22;16507;51.046;6.406;2023-11-21T12:34:00;11.50;99.90
29575;DHT22;16507;51.046;6.406;2023-11-21T12:36:29;11.50;99.90
29575;DHT22;16507;51.046;6.406;2023-11-21T12:38:55;11.50;99.90
29575;DHT22;16507;51.046;6.406;2023-11-21T12:41:21;11.30;99.90
29575;DHT22;16507;51.046;6.406;2023-11-21T12:43:47;11.40;99.90
29575;DHT22;16507;51.046;6.406;2023-11-21T12:46:13;11.40;99.90
29575;DHT22;16507;51.046;6.406;2023-11-21T12:48:44;11.40;99.90
29575;DHT22;16507;51.046;6.406;2023-11-21T12:51:11;11.30;99.90
29575;DHT22;16507;51.046;6.406;2023-11-21T12:53:41;11.30;99.90
29575;DHT22;16507;51.046;6.406;2023-11-21T12:56:09;11.40;99.90
29575;DHT22;16507;51.046;6.406;2023-11-21T12:58:39;11.40;99.90
29575;DHT22;16507;51.046;6.406;2023-11-21T13:01:06;11.30;99.90
29575;DHT22;16507;51.046;6.406;2023-11-21T13:03:37;11.30;99.90
29575;DHT22;16507;51.046;6.406;2023-11-21T13:06:04;11.40;99.90
29575;DHT22;16507;51.046;6.406;2023-11-21T13:08:30;11.30;99.90
29575;DHT22;16507;51.046;6.406;2023-11-21T13:10:58;11.40;99.90
29575;DHT22;16507;51.046;6.406;2023-11-21T13:13:25;11.40;99.90
29575;DHT22;16507;51.046;6.406;2023-11-21T13:15:58;11.40;99.90
29575;DHT22;16507;51.046;6.406;2023-11-21T13:18:27;11.40;99.90
29575;DHT22;16507;51.046;6.406;2023-11-21T13:20:57;11.30;99.90
29575;DHT22;16507;51.046;6.406;2023-11-21T13:23:25;11.30;99.90
29575;DHT22;16507;51.046;6.406;2023-11-21T13:25:51;11.20;99.90
29575;DHT22;16507;51.046;6.406;2023-11-21T13:28:18;11.20;99.90
29575;DHT22;16507;51.046;6.406;2023-11-21T13:30:46;11.20;99.90
29575;DHT22;16507;51.046;6.406;2023-11-21T13:33:13;11.10;99.90
29575;DHT22;16507;51.046;6.406;2023-11-21T13:35:43;11.20;99.90
29575;DHT22;16507;51.046;6.406;2023-11-21T13:38:17;11.20;99.90
29575;DHT22;16507;51.046;6.406;2023-11-21T13:40:48;11.10;99.90
29575;DHT22;16507;51.046;6.406;2023-11-21T13:43:23;11.10;99.90
29575;DHT22;16507;51.046;6.406;2023-11-21T13:45:52;11.10;99.90
29575;DHT22;16507;51.046;6.406;2023-11-21T13:48:26;11.10;99.90
29575;DHT22;16507;51.046;6.406;2023-11-21T13:50:58;11.10;99.90
29575;DHT22;16507;51.046;6.406;2023-11-21T13:53:26;11.10;99.90
29575;DHT22;16507;51.046;6.406;2023-11-21T13:55:53;11.20;99.90
29575;DHT22;16507;51.046;6.406;2023-11-21T13:58:25;11.20;99.90
29575;DHT22;16507;51.046;6.406;2023-11-21T14:01:09;11.20;99.90
29575;DHT22;16507;51.046;6.406;2023-11-21T14:03:50;11.10;99.90
29575;DHT22;16507;51.046;6.406;2023-11-21T14:06:17;11.20;99.90
29575;DHT22;16507;51.046;6.406;2023-11-21T14:08:50;11.10;99.90
29575;DHT22;16507;51.046;6.406;2023-11-21T14:11:15;11.10;99.90
29575;DHT22;16507;51.046;6.406;2023-11-21T14:13:43;11.10;99.90
29575;DHT22;16507;51.046;6.406;2023-11-21T14:16:13;11.10;99.90
29575;DHT22;16507;51.046;6.406;2023-11-21T14:18:39;11.10;99.90
29575;DHT22;16507;51.046;6.406;2023-11-21T14:21:18;11.10;99.90
29575;DHT22;16507;51.046;6.406;2023-11-21T14:23:43;11.10;99.90
29575;DHT22;16507;51.046;6.406;2023-11-21T14:26:11;11.10;99.90
29575;DHT22;16507;51.046;6.406;2023-11-21T14:28:40;11.20;99.90
29575;DHT22;16507;51.046;6.406;2023-11-21T14:31:07;11.20;99.90
29575;DHT22;16507;51.046;6.406;2023-11-21T14:33:33;11.30;99.90
29575;DHT22;16507;51.046;6.406;2023-11-21T14:35:59;11.30;99.90
29575;DHT22;16507;51.046;6.406;2023-11-21T14:38:24;11.30;99.90
29575;DHT22;16507;51.046;6.406;2023-11-21T14:40:50;11.20;99.90
29575;DHT22;16507;51.046;6.406;2023-11-21T14:43:16;11.10;99.90
29575;DHT22;16507;51.046;6.406;2023-11-21T14:45:42;11.10;99.90
29575;DHT22;16507;51.046;6.406;2023-11-21T14:48:08;11.10;99.90
29575;DHT22;16507;51.046;6.406;2023-11-21T14:50:41;11.00;99.90
29575;DHT22;16507;51.046;6.406;2023-11-21T14:53:08;11.00;99.90
29575;DHT22;16507;51.046;6.406;2023-11-21T14:55:34;11.00;99.90
29575;DHT22;16507;51.046;6.406;2023-11-21T14:58:18;10.90;99.90
29575;DHT22;16507;51.046;6.406;2023-11-21T15:01:00;10.90;99.90
29575;DHT22;16507;51.046;6.406;2023-11-21T15:03:27;10.90;99.90
29575;DHT22;16507;51.046;6.406;2023-11-21T15:06:00;10.90;99.90
29575;DHT22;16507;51.046;6.406;2023-11-21T15:08:50;10.90;99.90
29575;DHT22;16507;51.046;6.406;2023-11-21T15:11:26;10.90;99.90
29575;DHT22;16507;51.046;6.406;2023-11-21T15:13:57;10.90;99.90
29575;DHT22;16507;51.046;6.406;2023-11-21T15:16:23;10.80;99.90
29575;DHT22;16507;51.046;6.406;2023-11-21T15:18:48;10.90;99.90
29575;DHT22;16507;51.046;6.406;2023-11-21T15:21:14;10.80;99.90
29575;DHT22;16507;51.046;6.406;2023-11-21T15:23:40;10.70;99.90
29575;DHT22;16507;51.046;6.406;2023-11-21T15:26:07;10.70;99.90
29575;DHT22;16507;51.046;6.406;2023-11-21T15:28:34;10.70;99.90
29575;DHT22;16507;51.046;6.406;2023-11-21T15:31:00;10.60;99.90
29575;DHT22;16507;51.046;6.406;2023-11-21T15:33:28;10.50;99.90
29575;DHT22;16507;51.046;6.406;2023-11-21T15:35:53;10.50;99.90
29575;DHT22;16507;51.046;6.406;2023-11-21T15:38:20;10.30;99.90
29575;DHT22;16507;51.046;6.406;2023-11-21T15:40:47;10.40;99.90
29575;DHT22;16507;51.046;6.406;2023-11-21T15:43:12;10.20;99.90
29575;DHT22;16507;51.046;6.406;2023-11-21T15:45:39;10.10;99.90
29575;DHT22;16507;51.046;6.406;2023-11-21T15:48:05;10.10;99.90